Almirante Gago Coutinho — CTHA — position and weather

sailwx.info

Track history (hours):
 
Tides and Currents Weather Stations Pressure Air Temp Water Temp Dewpoint Dewpoint Depression Visibility Wind Speed Wind Dir Waves Ship Positions

Oceanographic research ship Almirante Gago Coutinho (Portugal)

Detailed information on ship capabilities available from University of Delaware's Ocean Information Center.

Last reported at 2017-Mar-10 20:30 UTC. Time now 2017-Mar-23 20:18 UTC.
Position N 38°40' W 009°09'.
Warning: this ship's position is 12 days out of date.

; draft 5.3 m.

MMSI: 263145000.

Date/timePositionNaut miles runAvg speedWind from/ knotsBaromVisibWave heightAir tempDewpointWater temp
2017-Mar-10 20:30N 38°40' W 009°09'1 1.6
2017-Mar-10 19:33N 38°42' W 009°09'6 6.2
2017-Mar-10 18:33N 38°41' W 009°17'6 6.2
2017-Mar-10 17:34N 38°36' W 009°22'7 6.8
2017-Mar-10 16:34N 38°30' W 009°18'8 8.1
2017-Mar-10 15:33N 38°23' W 009°13'6 5.6
2017-Mar-10 14:29N 38°26' W 009°06'0 0.0
2017-Mar-10 13:32N 38°26' W 009°06'0 0.0
2017-Mar-10 12:20N 38°26' W 009°06'0 0.0
2017-Mar-10 11:32N 38°26' W 009°06'0 0.0
2017-Mar-10 10:29N 38°26' W 009°06'0 0.0
2017-Mar-10 09:32N 38°26' W 009°06'0 0.0
2017-Mar-10 08:32N 38°26' W 009°06'4 4.5
2017-Mar-10 07:33N 38°22' W 009°04'4 4.1
2017-Mar-10 06:33N 38°18' W 009°01'4 4.3
2017-Mar-10 05:33N 38°16' W 008°56'7 6.9
2017-Mar-10 04:33N 38°14' W 009°05'0 0.5
2017-Mar-10 03:34N 38°14' W 009°04'1 0.9
2017-Mar-10 02:34N 38°15' W 009°04'2 1.7
2017-Mar-10 01:34N 38°17' W 009°05'0 0.2
2017-Mar-10 00:33N 38°17' W 009°05'7 6.6
2017-Mar-09 23:34N 38°15' W 008°57'3 3.1
2017-Mar-09 22:33N 38°17' W 008°53'7 7.4
2017-Mar-09 21:34N 38°16' W 009°03'2 1.6
2017-Mar-09 20:33N 38°16' W 009°01'7 7.3
2017-Mar-09 19:33N 38°18' W 008°52'5 5.2
2017-Mar-09 18:33N 38°16' W 008°58'5 4.6
2017-Mar-09 17:33N 38°18' W 009°04'5 5.0
2017-Mar-09 16:33N 38°23' W 009°06'3 3.3
2017-Mar-09 15:33N 38°26' W 009°06'0 0.0
2017-Mar-09 14:33N 38°26' W 009°06'0 0.0
2017-Mar-09 13:30N 38°26' W 009°06'0 0.0
2017-Mar-09 12:33N 38°26' W 009°06'0 0.0
2017-Mar-09 11:27N 38°26' W 009°06'0 0.0
2017-Mar-09 10:33N 38°26' W 009°06'0 0.0
2017-Mar-09 09:33N 38°26' W 009°06'0 0.0
2017-Mar-09 08:33N 38°26' W 009°06'0 0.0
2017-Mar-09 07:33N 38°26' W 009°06'0 0.0
2017-Mar-09 06:33N 38°26' W 009°06'0 0.0
2017-Mar-09 05:30N 38°26' W 009°06'0 0.0
2017-Mar-09 04:33N 38°26' W 009°06'0 0.0
2017-Mar-09 03:33N 38°26' W 009°06'0 0.0
2017-Mar-09 02:30N 38°26' W 009°06'0 0.0
2017-Mar-09 01:33N 38°26' W 009°06'0 0.0
2017-Mar-09 00:33N 38°26' W 009°06'0 0.0
2017-Mar-08 23:33N 38°26' W 009°06'0 0.0
2017-Mar-08 22:33N 38°26' W 009°06'0 0.0
2017-Mar-08 21:30N 38°26' W 009°06'0 0.0
2017-Mar-08 20:30N 38°26' W 009°06'0 0.0
2017-Mar-08 19:30N 38°26' W 009°06'0 0.0
2017-Mar-08 18:33N 38°26' W 009°06'0 0.0
2017-Mar-08 17:30N 38°26' W 009°06'0 0.0
2017-Mar-08 16:33N 38°26' W 009°06'0 0.0
2017-Mar-08 15:33N 38°26' W 009°06'0 0.0
2017-Mar-08 14:33N 38°26' W 009°06'0 0.0
2017-Mar-08 13:33N 38°26' W 009°06'0 0.0
2017-Mar-08 12:30N 38°26' W 009°06'0 0.0
2017-Mar-08 11:33N 38°26' W 009°06'0 0.0
2017-Mar-08 10:33N 38°26' W 009°06'0 0.0
2017-Mar-08 09:33N 38°26' W 009°06'0 0.0
2017-Mar-08 08:33N 38°26' W 009°06'1 0.8
2017-Mar-08 07:33N 38°25' W 009°06'5 5.4
2017-Mar-08 06:33N 38°21' W 009°10'6 6.3
2017-Mar-08 05:33N 38°17' W 009°16'7 6.6
2017-Mar-08 04:33N 38°11' W 009°21'5 4.9
2017-Mar-08 03:33N 38°06' W 009°22'7 6.7
2017-Mar-08 02:34N 38°10' W 009°29'2 2.2
2017-Mar-08 01:34N 38°09' W 009°31'6 6.2
2017-Mar-08 00:33N 38°06' W 009°25'6 9.9
2017-Mar-08 00:00N 38°00' W 009°24'716.3 010 / 141026.0 5.4 16.016.015.0
2017-Mar-07 23:33N 38°07' W 009°23'2 2.0
2017-Mar-07 22:33N 38°09' W 009°23'5 5.5
2017-Mar-07 21:34N 38°05' W 009°27'3 3.1
2017-Mar-07 20:33N 38°08' W 009°26'6 6.4
2017-Mar-07 19:33N 38°13' W 009°22'3 2.6
2017-Mar-07 18:33N 38°15' W 009°19'8 7.7
2017-Mar-07 17:33N 38°18' W 009°11'8 7.6
2017-Mar-07 16:34N 38°25' W 009°06'1 1.1
2017-Mar-07 15:28N 38°26' W 009°06'0 0.0
2017-Mar-07 14:31N 38°26' W 009°06'0 0.0
2017-Mar-07 13:25N 38°26' W 009°06'0 0.0
2017-Mar-07 12:31N 38°26' W 009°06'0 0.1
2017-Mar-07 11:31N 38°26' W 009°06'0 0.0
2017-Mar-07 10:34N 38°26' W 009°06'0 0.0
2017-Mar-07 09:33N 38°26' W 009°06'0 0.0
2017-Mar-07 08:34N 38°26' W 009°06'0 0.1
2017-Mar-07 07:34N 38°26' W 009°06'7 7.3
2017-Mar-07 06:33N 38°19' W 009°02'3 3.3
2017-Mar-07 05:33N 38°21' W 009°05'1 0.6
2017-Mar-07 04:33N 38°21' W 009°05'1 1.0
2017-Mar-07 03:33N 38°20' W 009°06'6 6.2
2017-Mar-07 02:33N 38°18' W 008°59'6 5.7
2017-Mar-07 01:34N 38°19' W 008°52'6 5.6
2017-Mar-07 00:33N 38°17' W 008°59'4 4.4
2017-Mar-06 23:33N 38°19' W 009°04'6 6.2
2017-Mar-06 22:34N 38°17' W 008°56'3 3.1
2017-Mar-06 21:33N 38°18' W 008°53'6 6.2
2017-Mar-06 20:33N 38°17' W 009°00'4 4.5
2017-Mar-06 19:33N 38°18' W 009°06'7 7.4
2017-Mar-06 18:33N 38°26' W 009°06'0 0.1
2017-Mar-06 17:31N 38°26' W 009°06'0 0.0
2017-Mar-06 16:28N 38°26' W 009°06'0 0.0
2017-Mar-06 15:31N 38°26' W 009°06'0 0.0
2017-Mar-06 14:28N 38°26' W 009°06'0 0.0
2017-Mar-06 13:28N 38°26' W 009°06'0 0.0
2017-Mar-06 12:28N 38°26' W 009°06'0 0.0
2017-Mar-06 11:31N 38°26' W 009°06'0 0.0
2017-Mar-06 10:31N 38°26' W 009°06'0 0.0
2017-Mar-06 09:31N 38°26' W 009°06'0 0.0
2017-Mar-06 08:28N 38°26' W 009°06'0 0.5
2017-Mar-06 07:33N 38°26' W 009°06'5 4.9
2017-Mar-06 06:33N 38°21' W 009°09'7 7.1
2017-Mar-06 05:33N 38°16' W 009°15'7 7.0
2017-Mar-06 04:33N 38°10' W 009°20'5 5.3
2017-Mar-06 03:33N 38°11' W 009°27'1 1.2
2017-Mar-06 02:33N 38°11' W 009°25'7 6.7
2017-Mar-06 01:33N 38°06' W 009°30'6 5.6
2017-Mar-06 00:34N 38°11' W 009°27'4 3.6
2017-Mar-05 23:33N 38°14' W 009°24'6 5.7
2017-Mar-05 22:33N 38°19' W 009°23'8 7.9
2017-Mar-05 21:33N 38°27' W 009°22'8 8.0
2017-Mar-05 20:33N 38°35' W 009°22'7 7.0
2017-Mar-05 19:33N 38°41' W 009°17'7 6.7
2017-Mar-05 18:33N 38°42' W 009°09'2 1.6
2017-Mar-05 17:33N 38°40' W 009°09'0 0.0
2017-Mar-05 16:33N 38°40' W 009°09'  
2017-Mar-02 20:21N 38°40' W 009°09'11 2.3
2017-Mar-02 15:20N 38°34' W 009°21'0 0.4
2017-Mar-02 14:33N 38°34' W 009°21'12 5.2
2017-Mar-02 12:13N 38°22' W 009°15'3 1.8
2017-Mar-02 10:30N 38°21' W 009°12'1 1.5
2017-Mar-02 09:33N 38°22' W 009°10'5 5.3
2017-Mar-02 08:33N 38°26' W 009°06'0 0.1
2017-Mar-02 07:33N 38°26' W 009°06'0 0.0
2017-Mar-02 06:33N 38°26' W 009°06'0 0.0
2017-Mar-02 05:33N 38°26' W 009°06'0 0.0
2017-Mar-02 04:33N 38°26' W 009°06'0 0.0
2017-Mar-02 03:30N 38°26' W 009°06'0 0.0
2017-Mar-02 02:33N 38°26' W 009°06'0 0.0
2017-Mar-02 01:33N 38°26' W 009°06'0 0.0
2017-Mar-02 00:33N 38°26' W 009°06'0 0.0
2017-Mar-01 23:33N 38°26' W 009°06'0 0.0
2017-Mar-01 22:33N 38°26' W 009°06'0 0.0
2017-Mar-01 21:33N 38°26' W 009°06'0 0.0
2017-Mar-01 20:33N 38°26' W 009°06'0 0.0
2017-Mar-01 19:33N 38°26' W 009°06'0 0.0
2017-Mar-01 18:33N 38°26' W 009°06'0 0.0
2017-Mar-01 17:33N 38°26' W 009°06'2 2.4
2017-Mar-01 16:33N 38°24' W 009°07'1 0.3
2017-Mar-01 13:12N 38°23' W 009°08'4 6.6
2017-Mar-01 12:34N 38°23' W 009°13'7 7.2
2017-Mar-01 11:33N 38°28' W 009°19'8 8.3
2017-Mar-01 10:33N 38°37' W 009°21'9 9.0
2017-Mar-01 09:33N 38°41' W 009°12'2 2.4
2017-Mar-01 08:33N 38°40' W 009°09'0 0.0
2017-Mar-01 07:33N 38°40' W 009°09'0 0.0
2017-Mar-01 06:33N 38°40' W 009°09'0 0.0
2017-Mar-01 05:33N 38°40' W 009°09'0 0.0
2017-Mar-01 04:33N 38°40' W 009°09'0 0.0
2017-Mar-01 03:33N 38°40' W 009°09'0 0.0
2017-Mar-01 02:33N 38°40' W 009°09'0 0.0
2017-Mar-01 01:33N 38°40' W 009°09'0 0.0
2017-Mar-01 00:33N 38°40' W 009°09'0 0.0
2017-Feb-28 23:33N 38°40' W 009°09'0 0.0
2017-Feb-28 22:33N 38°40' W 009°09'0 0.0
2017-Feb-28 21:33N 38°40' W 009°09'0 0.0
2017-Feb-28 20:33N 38°40' W 009°09'  
Track history (hours):
 
Tides and Currents Weather Stations Pressure Air Temp Water Temp Dewpoint Dewpoint Depression Visibility Wind Speed Wind Dir Waves Ship Positions

Oceanographic research ship Almirante Gago Coutinho (Portugal)

Detailed information on ship capabilities available from University of Delaware's Ocean Information Center.

Last reported at 2017-Mar-10 20:30 UTC. Time now 2017-Mar-23 20:18 UTC.
Position N 38°40' W 009°09'.
Warning: this ship's position is 12 days out of date.

; draft 5.3 m.

MMSI: 263145000.

Date/timePositionNaut miles runAvg speedWind from/ knotsBaromVisibWave heightAir tempDewpointWater temp
2017-Mar-10 20:30N 38°40' W 009°09'1 1.6
2017-Mar-10 19:33N 38°42' W 009°09'6 6.2
2017-Mar-10 18:33N 38°41' W 009°17'6 6.2
2017-Mar-10 17:34N 38°36' W 009°22'7 6.8
2017-Mar-10 16:34N 38°30' W 009°18'8 8.1
2017-Mar-10 15:33N 38°23' W 009°13'6 5.6
2017-Mar-10 14:29N 38°26' W 009°06'0 0.0
2017-Mar-10 13:32N 38°26' W 009°06'0 0.0
2017-Mar-10 12:20N 38°26' W 009°06'0 0.0
2017-Mar-10 11:32N 38°26' W 009°06'0 0.0
2017-Mar-10 10:29N 38°26' W 009°06'0 0.0
2017-Mar-10 09:32N 38°26' W 009°06'0 0.0
2017-Mar-10 08:32N 38°26' W 009°06'4 4.5
2017-Mar-10 07:33N 38°22' W 009°04'4 4.1
2017-Mar-10 06:33N 38°18' W 009°01'4 4.3
2017-Mar-10 05:33N 38°16' W 008°56'7 6.9
2017-Mar-10 04:33N 38°14' W 009°05'0 0.5
2017-Mar-10 03:34N 38°14' W 009°04'1 0.9
2017-Mar-10 02:34N 38°15' W 009°04'2 1.7
2017-Mar-10 01:34N 38°17' W 009°05'0 0.2
2017-Mar-10 00:33N 38°17' W 009°05'7 6.6
2017-Mar-09 23:34N 38°15' W 008°57'3 3.1
2017-Mar-09 22:33N 38°17' W 008°53'7 7.4
2017-Mar-09 21:34N 38°16' W 009°03'2 1.6
2017-Mar-09 20:33N 38°16' W 009°01'7 7.3
2017-Mar-09 19:33N 38°18' W 008°52'5 5.2
2017-Mar-09 18:33N 38°16' W 008°58'5 4.6
2017-Mar-09 17:33N 38°18' W 009°04'5 5.0
2017-Mar-09 16:33N 38°23' W 009°06'3 3.3
2017-Mar-09 15:33N 38°26' W 009°06'0 0.0
2017-Mar-09 14:33N 38°26' W 009°06'0 0.0
2017-Mar-09 13:30N 38°26' W 009°06'0 0.0
2017-Mar-09 12:33N 38°26' W 009°06'0 0.0
2017-Mar-09 11:27N 38°26' W 009°06'0 0.0
2017-Mar-09 10:33N 38°26' W 009°06'0 0.0
2017-Mar-09 09:33N 38°26' W 009°06'0 0.0
2017-Mar-09 08:33N 38°26' W 009°06'0 0.0
2017-Mar-09 07:33N 38°26' W 009°06'0 0.0
2017-Mar-09 06:33N 38°26' W 009°06'0 0.0
2017-Mar-09 05:30N 38°26' W 009°06'0 0.0
2017-Mar-09 04:33N 38°26' W 009°06'0 0.0
2017-Mar-09 03:33N 38°26' W 009°06'0 0.0
2017-Mar-09 02:30N 38°26' W 009°06'0 0.0
2017-Mar-09 01:33N 38°26' W 009°06'0 0.0
2017-Mar-09 00:33N 38°26' W 009°06'0 0.0
2017-Mar-08 23:33N 38°26' W 009°06'0 0.0
2017-Mar-08 22:33N 38°26' W 009°06'0 0.0
2017-Mar-08 21:30N 38°26' W 009°06'0 0.0
2017-Mar-08 20:30N 38°26' W 009°06'0 0.0
2017-Mar-08 19:30N 38°26' W 009°06'0 0.0
2017-Mar-08 18:33N 38°26' W 009°06'0 0.0
2017-Mar-08 17:30N 38°26' W 009°06'0 0.0
2017-Mar-08 16:33N 38°26' W 009°06'0 0.0
2017-Mar-08 15:33N 38°26' W 009°06'0 0.0
2017-Mar-08 14:33N 38°26' W 009°06'0 0.0
2017-Mar-08 13:33N 38°26' W 009°06'0 0.0
2017-Mar-08 12:30N 38°26' W 009°06'0 0.0
2017-Mar-08 11:33N 38°26' W 009°06'0 0.0
2017-Mar-08 10:33N 38°26' W 009°06'0 0.0
2017-Mar-08 09:33N 38°26' W 009°06'0 0.0
2017-Mar-08 08:33N 38°26' W 009°06'1 0.8
2017-Mar-08 07:33N 38°25' W 009°06'5 5.4
2017-Mar-08 06:33N 38°21' W 009°10'6 6.3
2017-Mar-08 05:33N 38°17' W 009°16'7 6.6
2017-Mar-08 04:33N 38°11' W 009°21'5 4.9
2017-Mar-08 03:33N 38°06' W 009°22'7 6.7
2017-Mar-08 02:34N 38°10' W 009°29'2 2.2
2017-Mar-08 01:34N 38°09' W 009°31'6 6.2
2017-Mar-08 00:33N 38°06' W 009°25'6 9.9
2017-Mar-08 00:00N 38°00' W 009°24'716.3 010 / 141026.0 5.4 16.016.015.0
2017-Mar-07 23:33N 38°07' W 009°23'2 2.0
2017-Mar-07 22:33N 38°09' W 009°23'5 5.5
2017-Mar-07 21:34N 38°05' W 009°27'3 3.1
2017-Mar-07 20:33N 38°08' W 009°26'6 6.4
2017-Mar-07 19:33N 38°13' W 009°22'3 2.6
2017-Mar-07 18:33N 38°15' W 009°19'8 7.7
2017-Mar-07 17:33N 38°18' W 009°11'8 7.6
2017-Mar-07 16:34N 38°25' W 009°06'1 1.1
2017-Mar-07 15:28N 38°26' W 009°06'0 0.0
2017-Mar-07 14:31N 38°26' W 009°06'0 0.0
2017-Mar-07 13:25N 38°26' W 009°06'0 0.0
2017-Mar-07 12:31N 38°26' W 009°06'0 0.1
2017-Mar-07 11:31N 38°26' W 009°06'0 0.0
2017-Mar-07 10:34N 38°26' W 009°06'0 0.0
2017-Mar-07 09:33N 38°26' W 009°06'0 0.0
2017-Mar-07 08:34N 38°26' W 009°06'0 0.1
2017-Mar-07 07:34N 38°26' W 009°06'7 7.3
2017-Mar-07 06:33N 38°19' W 009°02'3 3.3
2017-Mar-07 05:33N 38°21' W 009°05'1 0.6
2017-Mar-07 04:33N 38°21' W 009°05'1 1.0
2017-Mar-07 03:33N 38°20' W 009°06'6 6.2
2017-Mar-07 02:33N 38°18' W 008°59'6 5.7
2017-Mar-07 01:34N 38°19' W 008°52'6 5.6
2017-Mar-07 00:33N 38°17' W 008°59'4 4.4
2017-Mar-06 23:33N 38°19' W 009°04'6 6.2
2017-Mar-06 22:34N 38°17' W 008°56'3 3.1
2017-Mar-06 21:33N 38°18' W 008°53'6 6.2
2017-Mar-06 20:33N 38°17' W 009°00'4 4.5
2017-Mar-06 19:33N 38°18' W 009°06'7 7.4
2017-Mar-06 18:33N 38°26' W 009°06'0 0.1
2017-Mar-06 17:31N 38°26' W 009°06'0 0.0
2017-Mar-06 16:28N 38°26' W 009°06'0 0.0
2017-Mar-06 15:31N 38°26' W 009°06'0 0.0
2017-Mar-06 14:28N 38°26' W 009°06'0 0.0
2017-Mar-06 13:28N 38°26' W 009°06'0 0.0
2017-Mar-06 12:28N 38°26' W 009°06'0 0.0
2017-Mar-06 11:31N 38°26' W 009°06'0 0.0
2017-Mar-06 10:31N 38°26' W 009°06'0 0.0
2017-Mar-06 09:31N 38°26' W 009°06'0 0.0
2017-Mar-06 08:28N 38°26' W 009°06'0 0.5
2017-Mar-06 07:33N 38°26' W 009°06'5 4.9
2017-Mar-06 06:33N 38°21' W 009°09'7 7.1
2017-Mar-06 05:33N 38°16' W 009°15'7 7.0
2017-Mar-06 04:33N 38°10' W 009°20'5 5.3
2017-Mar-06 03:33N 38°11' W 009°27'1 1.2
2017-Mar-06 02:33N 38°11' W 009°25'7 6.7
2017-Mar-06 01:33N 38°06' W 009°30'6 5.6
2017-Mar-06 00:34N 38°11' W 009°27'4 3.6
2017-Mar-05 23:33N 38°14' W 009°24'6 5.7
2017-Mar-05 22:33N 38°19' W 009°23'8 7.9
2017-Mar-05 21:33N 38°27' W 009°22'8 8.0
2017-Mar-05 20:33N 38°35' W 009°22'7 7.0
2017-Mar-05 19:33N 38°41' W 009°17'7 6.7
2017-Mar-05 18:33N 38°42' W 009°09'2 1.6
2017-Mar-05 17:33N 38°40' W 009°09'0 0.0
2017-Mar-05 16:33N 38°40' W 009°09'  
2017-Mar-02 20:21N 38°40' W 009°09'11 2.3
2017-Mar-02 15:20N 38°34' W 009°21'0 0.4
2017-Mar-02 14:33N 38°34' W 009°21'12 5.2
2017-Mar-02 12:13N 38°22' W 009°15'3 1.8
2017-Mar-02 10:30N 38°21' W 009°12'1 1.5
2017-Mar-02 09:33N 38°22' W 009°10'5 5.3
2017-Mar-02 08:33N 38°26' W 009°06'0 0.1
2017-Mar-02 07:33N 38°26' W 009°06'0 0.0
2017-Mar-02 06:33N 38°26' W 009°06'0 0.0
2017-Mar-02 05:33N 38°26' W 009°06'0 0.0
2017-Mar-02 04:33N 38°26' W 009°06'0 0.0
2017-Mar-02 03:30N 38°26' W 009°06'0 0.0
2017-Mar-02 02:33N 38°26' W 009°06'0 0.0
2017-Mar-02 01:33N 38°26' W 009°06'0 0.0
2017-Mar-02 00:33N 38°26' W 009°06'0 0.0
2017-Mar-01 23:33N 38°26' W 009°06'0 0.0
2017-Mar-01 22:33N 38°26' W 009°06'0 0.0
2017-Mar-01 21:33N 38°26' W 009°06'0 0.0
2017-Mar-01 20:33N 38°26' W 009°06'0 0.0
2017-Mar-01 19:33N 38°26' W 009°06'0 0.0
2017-Mar-01 18:33N 38°26' W 009°06'0 0.0
2017-Mar-01 17:33N 38°26' W 009°06'2 2.4
2017-Mar-01 16:33N 38°24' W 009°07'1 0.3
2017-Mar-01 13:12N 38°23' W 009°08'4 6.6
2017-Mar-01 12:34N 38°23' W 009°13'7 7.2
2017-Mar-01 11:33N 38°28' W 009°19'8 8.3
2017-Mar-01 10:33N 38°37' W 009°21'9 9.0
2017-Mar-01 09:33N 38°41' W 009°12'2 2.4
2017-Mar-01 08:33N 38°40' W 009°09'0 0.0
2017-Mar-01 07:33N 38°40' W 009°09'0 0.0
2017-Mar-01 06:33N 38°40' W 009°09'0 0.0
2017-Mar-01 05:33N 38°40' W 009°09'0 0.0
2017-Mar-01 04:33N 38°40' W 009°09'0 0.0
2017-Mar-01 03:33N 38°40' W 009°09'0 0.0
2017-Mar-01 02:33N 38°40' W 009°09'0 0.0
2017-Mar-01 01:33N 38°40' W 009°09'0 0.0
2017-Mar-01 00:33N 38°40' W 009°09'0 0.0
2017-Feb-28 23:33N 38°40' W 009°09'0 0.0
2017-Feb-28 22:33N 38°40' W 009°09'0 0.0
2017-Feb-28 21:33N 38°40' W 009°09'0 0.0
2017-Feb-28 20:33N 38°40' W 009°09'  

Dump ship's entire track history